createdAt,value
2022-12-01T00:00:13.983Z,50.58
2022-12-01T00:01:14.041Z,50.58
2022-12-01T00:02:14.137Z,50.58
2022-12-01T00:03:14.227Z,50.58
2022-12-01T00:04:14.007Z,50.58
2022-12-01T00:05:14.018Z,50.58
2022-12-01T00:06:14.047Z,50.58
2022-12-01T00:07:14.057Z,50.58
2022-12-01T00:08:14.079Z,50.58
2022-12-01T00:09:19.237Z,50.58
2022-12-01T00:10:14.094Z,50.58
2022-12-01T00:11:14.111Z,50.58
2022-12-01T00:12:14.154Z,50.58
2022-12-01T00:13:14.164Z,50.58
2022-12-01T00:14:14.127Z,50.58
2022-12-01T00:15:14.135Z,50.58
2022-12-01T00:16:14.224Z,50.58
2022-12-01T00:17:14.202Z,50.58
2022-12-01T00:18:14.174Z,50.68
2022-12-01T00:19:14.186Z,50.68
2022-12-01T00:20:14.207Z,50.48
2022-12-01T00:21:14.219Z,50.35
2022-12-01T00:22:14.247Z,50.26
2022-12-01T00:23:14.229Z,50.26
2022-12-01T00:24:14.251Z,50.15
2022-12-01T00:25:14.282Z,50.03
2022-12-01T00:26:14.293Z,49.93
2022-12-01T00:27:14.324Z,49.51
2022-12-01T00:28:14.339Z,49.30
2022-12-01T00:29:14.394Z,49.08
2022-12-01T00:30:14.358Z,48.88
2022-12-01T00:31:14.580Z,48.66
2022-12-01T00:32:14.467Z,48.46
2022-12-01T00:33:14.376Z,48.43
2022-12-01T00:34:14.390Z,48.23
2022-12-01T00:35:14.405Z,48.13
2022-12-01T00:36:14.433Z,48.13
2022-12-01T00:37:14.465Z,47.91
2022-12-01T00:38:14.440Z,47.71
2022-12-01T00:39:14.443Z,47.71
2022-12-01T00:40:14.454Z,47.71
2022-12-01T00:41:14.486Z,47.71
2022-12-01T00:42:14.510Z,47.49
2022-12-01T00:43:14.551Z,47.38
2022-12-01T00:44:14.561Z,47.38
2022-12-01T00:45:14.621Z,47.28
2022-12-01T00:46:14.657Z,47.49
2022-12-01T00:47:14.587Z,47.38
2022-12-01T00:48:14.615Z,47.38
2022-12-01T00:49:14.628Z,47.38
2022-12-01T00:50:14.667Z,47.28
2022-12-01T00:51:14.651Z,47.28
2022-12-01T00:52:14.674Z,47.06
2022-12-01T00:53:14.681Z,47.06
2022-12-01T00:54:14.707Z,46.96
2022-12-01T00:55:14.733Z,47.06
2022-12-01T00:56:14.768Z,47.06
2022-12-01T00:57:14.785Z,47.06
2022-12-01T00:58:14.810Z,47.16
2022-12-01T00:59:14.835Z,47.06
2022-12-01T01:00:14.859Z,47.06
2022-12-01T01:01:15.016Z,47.16
2022-12-01T01:02:14.992Z,46.96
2022-12-01T01:03:14.949Z,46.86
2022-12-01T01:04:14.969Z,46.86
2022-12-01T01:05:14.988Z,46.86
2022-12-01T01:06:15.008Z,46.86
2022-12-01T01:07:15.042Z,46.96
2022-12-01T01:08:15.037Z,46.86
2022-12-01T01:09:15.057Z,46.86
2022-12-01T01:10:15.071Z,46.86
2022-12-01T01:11:15.115Z,46.96
2022-12-01T01:12:15.077Z,46.86
2022-12-01T01:13:15.098Z,46.96
2022-12-01T01:14:15.130Z,46.86
2022-12-01T01:15:15.111Z,46.86
2022-12-01T01:16:15.282Z,46.86
2022-12-01T01:17:15.216Z,46.96
2022-12-01T01:18:15.178Z,47.06
2022-12-01T01:19:15.190Z,46.96
2022-12-01T01:20:15.203Z,46.94
2022-12-01T01:21:15.239Z,46.96
2022-12-01T01:22:15.243Z,47.06
2022-12-01T01:23:15.272Z,46.96
2022-12-01T01:24:15.305Z,47.06
2022-12-01T01:25:15.317Z,46.96
2022-12-01T01:26:15.341Z,46.96
2022-12-01T01:27:15.368Z,47.06
2022-12-01T01:28:15.395Z,47.06
2022-12-01T01:29:15.434Z,46.96
2022-12-01T01:30:15.392Z,46.96
2022-12-01T01:31:15.496Z,46.96
2022-12-01T01:32:15.419Z,46.96
2022-12-01T01:33:15.493Z,47.06
2022-12-01T01:34:15.446Z,47.16
2022-12-01T01:35:15.461Z,46.96
2022-12-01T01:36:15.467Z,46.96
2022-12-01T01:37:15.474Z,47.06
2022-12-01T01:38:15.507Z,47.16
2022-12-01T01:39:15.516Z,47.06
2022-12-01T01:40:15.543Z,46.96
2022-12-01T01:41:15.551Z,46.96
2022-12-01T01:42:15.566Z,47.06
2022-12-01T01:43:15.587Z,47.06
2022-12-01T01:44:15.626Z,47.06
2022-12-01T01:45:15.597Z,47.06
2022-12-01T01:46:15.676Z,47.06
2022-12-01T01:47:15.632Z,47.16
2022-12-01T01:48:15.653Z,47.06
2022-12-01T01:49:15.716Z,47.06
2022-12-01T01:50:15.673Z,47.16
2022-12-01T01:51:15.680Z,47.16
2022-12-01T01:52:15.716Z,47.06
2022-12-01T01:53:15.731Z,47.06
2022-12-01T01:54:15.836Z,47.06
2022-12-01T01:55:15.735Z,47.06
2022-12-01T01:56:15.765Z,47.06
2022-12-01T01:57:15.788Z,47.16
2022-12-01T01:58:15.807Z,47.16
2022-12-01T01:59:15.848Z,47.06
2022-12-01T02:00:15.870Z,47.16
2022-12-01T02:01:15.931Z,47.16
2022-12-01T02:02:15.965Z,47.16
2022-12-01T02:03:15.908Z,47.16
2022-12-01T02:04:15.930Z,47.16
2022-12-01T02:05:15.987Z,47.16
2022-12-01T02:06:15.956Z,47.16
2022-12-01T02:07:15.966Z,47.06
2022-12-01T02:08:15.982Z,47.16
2022-12-01T02:09:16.016Z,47.16
2022-12-01T02:10:16.025Z,47.16
2022-12-01T02:11:16.042Z,47.16
2022-12-01T02:12:16.054Z,47.16
2022-12-01T02:13:16.315Z,47.26
2022-12-01T02:14:16.110Z,47.16
2022-12-01T02:15:16.118Z,47.16
2022-12-01T02:16:16.185Z,47.16
2022-12-01T02:17:16.164Z,47.16
2022-12-01T02:18:16.173Z,47.16
2022-12-01T02:19:16.204Z,47.26
2022-12-01T02:20:16.211Z,47.26
2022-12-01T02:21:16.264Z,47.26
2022-12-01T02:22:16.225Z,47.26
2022-12-01T02:23:16.237Z,47.26
2022-12-01T02:24:16.261Z,47.26
2022-12-01T02:25:16.289Z,47.26
2022-12-01T02:26:16.327Z,47.26
2022-12-01T02:27:16.337Z,47.26
2022-12-01T02:28:16.354Z,47.26
2022-12-01T02:29:16.382Z,47.26
2022-12-01T02:30:16.401Z,47.26
2022-12-01T02:31:16.516Z,47.26
2022-12-01T02:32:16.455Z,47.26
2022-12-01T02:33:16.423Z,47.26
2022-12-01T02:34:16.444Z,47.26
2022-12-01T02:35:16.467Z,47.26
2022-12-01T02:36:16.494Z,47.26
2022-12-01T02:37:16.550Z,47.26
2022-12-01T02:38:16.509Z,47.26
2022-12-01T02:39:16.550Z,47.26
2022-12-01T02:40:16.526Z,47.28
2022-12-01T02:41:16.535Z,47.28
2022-12-01T02:42:16.540Z,47.28
2022-12-01T02:43:16.563Z,47.38
2022-12-01T02:44:16.600Z,47.28
2022-12-01T02:45:16.574Z,47.28
2022-12-01T02:46:16.674Z,47.38
2022-12-01T02:47:16.588Z,47.38
2022-12-01T02:48:16.623Z,47.38
2022-12-01T02:49:16.631Z,47.38
2022-12-01T02:50:16.650Z,47.38
2022-12-01T02:51:16.663Z,47.38
2022-12-01T02:52:16.675Z,47.38
2022-12-01T02:53:16.731Z,47.38
2022-12-01T02:54:16.707Z,47.38
2022-12-01T02:55:16.733Z,47.38
2022-12-01T02:56:16.741Z,47.38
2022-12-01T02:57:16.765Z,47.38
2022-12-01T02:58:16.774Z,47.38
2022-12-01T02:59:16.786Z,47.49
2022-12-01T03:00:16.805Z,47.38
2022-12-01T03:01:16.905Z,47.49
2022-12-01T03:02:16.937Z,47.49
2022-12-01T03:03:16.878Z,47.38
2022-12-01T03:04:16.902Z,47.49
2022-12-01T03:05:16.921Z,47.49
2022-12-01T03:06:16.948Z,47.49
2022-12-01T03:07:16.967Z,47.49
2022-12-01T03:08:16.993Z,47.49
2022-12-01T03:09:17.033Z,47.49
2022-12-01T03:10:17.006Z,47.49
2022-12-01T03:11:17.030Z,47.49
2022-12-01T03:12:17.047Z,47.49
2022-12-01T03:13:17.069Z,47.49
2022-12-01T03:14:17.338Z,47.49
2022-12-01T03:15:17.066Z,47.49
2022-12-01T03:16:17.122Z,47.49
2022-12-01T03:17:17.081Z,47.49
2022-12-01T03:18:17.093Z,47.49
2022-12-01T03:19:17.121Z,47.49
2022-12-01T03:20:17.140Z,47.49
2022-12-01T03:21:17.163Z,47.49
2022-12-01T03:22:17.175Z,47.49
2022-12-01T03:23:17.181Z,47.49
2022-12-01T03:24:17.214Z,47.49
2022-12-01T03:25:17.260Z,47.58
2022-12-01T03:26:17.237Z,47.50
2022-12-01T03:27:17.265Z,47.50
2022-12-01T03:28:21.885Z,47.50
2022-12-01T03:29:17.303Z,47.50
2022-12-01T03:30:17.323Z,47.50
2022-12-01T03:31:17.463Z,47.50
2022-12-01T03:32:17.406Z,47.50
2022-12-01T03:33:17.381Z,47.61
2022-12-01T03:34:17.402Z,47.61
2022-12-01T03:35:17.414Z,47.61
2022-12-01T03:36:17.427Z,47.61
2022-12-01T03:37:17.454Z,47.61
2022-12-01T03:38:17.466Z,47.61
2022-12-01T03:39:17.473Z,47.71
2022-12-01T03:40:17.495Z,47.71
2022-12-01T03:41:17.543Z,47.61
2022-12-01T03:42:17.517Z,47.71
2022-12-01T03:43:17.524Z,47.58
2022-12-01T03:44:17.548Z,47.49
2022-12-01T03:45:17.557Z,47.49
2022-12-01T03:46:17.644Z,47.38
2022-12-01T03:47:17.644Z,47.26
2022-12-01T03:48:17.627Z,47.06
2022-12-01T03:49:17.662Z,46.96
2022-12-01T03:50:17.677Z,46.84
2022-12-01T03:51:17.693Z,46.64
2022-12-01T03:52:17.713Z,46.64
2022-12-01T03:53:17.724Z,46.51
2022-12-01T03:54:17.744Z,46.31
2022-12-01T03:55:17.775Z,46.22
2022-12-01T03:56:17.749Z,45.89
2022-12-01T03:57:17.811Z,45.89
2022-12-01T03:58:17.780Z,45.69
2022-12-01T03:59:17.784Z,45.47
2022-12-01T04:00:17.880Z,45.27
2022-12-01T04:01:17.879Z,45.25
2022-12-01T04:02:17.821Z,45.15
2022-12-01T04:03:17.936Z,45.15
2022-12-01T04:04:17.880Z,44.95
2022-12-01T04:05:22.458Z,44.95
2022-12-01T04:06:17.847Z,44.95
2022-12-01T04:07:17.868Z,44.85
2022-12-01T04:08:17.893Z,44.73
2022-12-01T04:09:17.925Z,44.73
2022-12-01T04:10:17.948Z,44.83
2022-12-01T04:11:17.988Z,44.73
2022-12-01T04:12:18.016Z,44.73
2022-12-01T04:13:18.074Z,44.73
2022-12-01T04:14:18.044Z,44.63
2022-12-01T04:15:18.062Z,44.63
2022-12-01T04:16:18.119Z,44.63
2022-12-01T04:17:18.063Z,44.73
2022-12-01T04:18:18.113Z,44.63
2022-12-01T04:19:18.079Z,44.73
2022-12-01T04:20:18.091Z,44.83
2022-12-01T04:21:18.105Z,44.83
2022-12-01T04:22:18.117Z,44.65
2022-12-01T04:23:18.142Z,44.95
2022-12-01T04:24:18.160Z,44.85
2022-12-01T04:25:18.177Z,44.83
2022-12-01T04:26:18.203Z,44.63
2022-12-01T04:27:18.230Z,44.73
2022-12-01T04:28:18.273Z,44.63
2022-12-01T04:29:18.306Z,44.63
2022-12-01T04:30:18.313Z,44.53
2022-12-01T04:31:18.386Z,44.53
2022-12-01T04:32:18.345Z,44.53
2022-12-01T04:33:18.383Z,44.53
2022-12-01T04:34:18.413Z,44.53
2022-12-01T04:35:18.438Z,44.63
2022-12-01T04:36:18.452Z,44.63
2022-12-01T04:37:18.471Z,44.53
2022-12-01T04:38:18.492Z,44.63
2022-12-01T04:39:18.521Z,44.63
2022-12-01T04:40:18.498Z,44.63
2022-12-01T04:41:18.525Z,44.63
2022-12-01T04:42:18.540Z,44.63
2022-12-01T04:43:18.548Z,44.63
2022-12-01T04:44:18.582Z,44.63
2022-12-01T04:45:18.624Z,44.63
2022-12-01T04:46:18.681Z,44.63
2022-12-01T04:47:18.641Z,44.63
2022-12-01T04:48:18.658Z,44.73
2022-12-01T04:49:18.678Z,44.63
2022-12-01T04:50:18.698Z,44.73
2022-12-01T04:51:18.718Z,44.73
2022-12-01T04:52:18.731Z,44.73
2022-12-01T04:53:18.744Z,44.73
2022-12-01T04:54:18.756Z,44.73
2022-12-01T04:55:18.775Z,44.73
2022-12-01T04:56:18.803Z,44.73
2022-12-01T04:57:18.814Z,44.73
2022-12-01T04:58:18.828Z,44.73
2022-12-01T04:59:18.843Z,44.83
2022-12-01T05:00:18.867Z,44.83
2022-12-01T05:01:18.978Z,44.83
2022-12-01T05:02:18.950Z,44.83
2022-12-01T05:03:18.894Z,44.93
2022-12-01T05:04:18.928Z,44.83
2022-12-01T05:05:18.928Z,44.93
2022-12-01T05:06:18.951Z,44.83
2022-12-01T05:07:18.965Z,44.93
2022-12-01T05:08:18.972Z,44.93
2022-12-01T05:09:19.005Z,44.93
2022-12-01T05:10:19.027Z,44.93
2022-12-01T05:11:19.048Z,45.03
2022-12-01T05:12:19.060Z,45.03
2022-12-01T05:13:19.083Z,45.03
2022-12-01T05:14:19.096Z,45.03
2022-12-01T05:15:19.111Z,45.03
2022-12-01T05:16:19.201Z,45.03
2022-12-01T05:17:19.203Z,45.03
2022-12-01T05:18:19.239Z,45.03
2022-12-01T05:19:19.198Z,45.13
2022-12-01T05:20:19.227Z,45.13
2022-12-01T05:21:19.208Z,45.13
2022-12-01T05:22:36.445Z,45.13
2022-12-01T05:23:19.217Z,45.23
2022-12-01T05:24:19.251Z,45.23
2022-12-01T05:25:19.271Z,45.23
2022-12-01T05:26:19.288Z,45.23
2022-12-01T05:27:19.298Z,45.25
2022-12-01T05:28:19.312Z,45.25
2022-12-01T05:29:19.323Z,45.23
2022-12-01T05:30:21.170Z,45.25
2022-12-01T05:31:19.400Z,45.25
2022-12-01T05:32:19.345Z,45.35
2022-12-01T05:33:19.411Z,45.35
2022-12-01T05:34:19.373Z,45.35
2022-12-01T05:35:19.393Z,45.35
2022-12-01T05:36:19.423Z,45.45
2022-12-01T05:37:19.447Z,45.45
2022-12-01T05:38:19.457Z,45.45
2022-12-01T05:39:19.475Z,45.45
2022-12-01T05:40:19.470Z,45.45
2022-12-01T05:41:19.494Z,45.45
2022-12-01T05:42:19.522Z,45.45
2022-12-01T05:43:22.738Z,45.55
2022-12-01T05:44:19.548Z,45.45
2022-12-01T05:45:19.567Z,45.45
2022-12-01T05:46:19.665Z,45.45
2022-12-01T05:47:19.586Z,45.55
2022-12-01T05:48:19.617Z,45.55
2022-12-01T05:49:19.665Z,45.65
2022-12-01T05:50:19.672Z,45.55
2022-12-01T05:51:19.690Z,45.55
2022-12-01T05:52:19.707Z,45.65
2022-12-01T05:53:19.737Z,45.67
2022-12-01T05:54:19.753Z,45.67
2022-12-01T05:55:19.778Z,45.67
2022-12-01T05:56:19.802Z,45.67
2022-12-01T05:57:19.809Z,45.67
2022-12-01T05:58:19.828Z,45.77
2022-12-01T05:59:19.830Z,45.67
2022-12-01T06:01:45.811Z,45.77
2022-12-01T06:02:45.767Z,45.77
2022-12-01T06:03:45.855Z,45.77
2022-12-01T06:04:45.819Z,45.77
2022-12-01T06:05:45.826Z,45.77
2022-12-01T06:06:45.843Z,45.77
2022-12-01T06:07:45.943Z,45.77
2022-12-01T06:08:45.881Z,45.77
2022-12-01T06:09:45.897Z,45.77
2022-12-01T06:10:45.906Z,45.87
2022-12-01T06:11:48.056Z,45.87
2022-12-01T06:12:45.923Z,45.87
2022-12-01T06:13:45.943Z,45.87
2022-12-01T06:14:45.949Z,45.97
2022-12-01T06:15:45.965Z,45.87
2022-12-01T06:16:46.018Z,45.87
2022-12-01T06:17:45.973Z,45.87
2022-12-01T06:18:45.976Z,45.97
2022-12-01T06:19:45.992Z,45.87
2022-12-01T06:20:46.041Z,45.97
2022-12-01T06:21:46.058Z,45.97
2022-12-01T06:22:46.050Z,45.97
2022-12-01T06:23:46.054Z,45.97
2022-12-01T06:24:46.056Z,46.00
2022-12-01T06:25:46.092Z,46.00
2022-12-01T06:26:46.087Z,46.00
2022-12-01T06:27:46.096Z,46.00
2022-12-01T06:28:46.127Z,46.00
2022-12-01T06:29:46.139Z,46.00
2022-12-01T06:30:46.166Z,46.00
2022-12-01T06:31:46.244Z,46.00
2022-12-01T06:32:46.218Z,46.00
2022-12-01T06:33:46.180Z,46.00
2022-12-01T06:34:46.200Z,46.00
2022-12-01T06:35:46.227Z,46.00
2022-12-01T06:36:46.259Z,46.09
2022-12-01T06:37:46.276Z,46.09
2022-12-01T06:38:46.292Z,46.09
2022-12-01T06:39:46.567Z,46.09
2022-12-01T06:40:46.274Z,46.09
2022-12-01T06:41:46.443Z,46.09
2022-12-01T06:42:46.331Z,46.19
2022-12-01T06:43:46.383Z,46.09
2022-12-01T06:44:46.346Z,46.19
2022-12-01T06:45:46.421Z,46.09
2022-12-01T06:46:46.479Z,46.09
2022-12-01T06:47:46.349Z,46.09
2022-12-01T06:48:46.525Z,46.09
2022-12-01T06:49:46.451Z,46.19
2022-12-01T06:50:46.477Z,46.19
2022-12-01T06:51:46.381Z,46.22
2022-12-01T06:52:46.421Z,46.22
2022-12-01T06:53:46.388Z,46.22
2022-12-01T06:54:46.392Z,46.31
2022-12-01T06:55:46.450Z,46.31
2022-12-01T06:56:46.406Z,46.31
2022-12-01T06:57:46.461Z,46.31
2022-12-01T06:58:46.635Z,46.31
2022-12-01T06:59:46.893Z,46.31
2022-12-01T07:00:51.932Z,46.31
2022-12-01T07:01:46.514Z,46.31
2022-12-01T07:02:46.524Z,46.31
2022-12-01T07:03:46.495Z,46.31
2022-12-01T07:04:46.514Z,46.42
2022-12-01T07:05:46.482Z,46.42
2022-12-01T07:06:46.493Z,46.31
2022-12-01T07:07:46.598Z,46.31
2022-12-01T07:08:46.548Z,46.31
2022-12-01T07:09:46.738Z,46.31
2022-12-01T07:10:46.494Z,46.31
2022-12-01T07:11:46.507Z,46.42
2022-12-01T07:12:46.521Z,46.31
2022-12-01T07:13:46.563Z,46.42
2022-12-01T07:14:46.583Z,46.42
2022-12-01T07:15:46.585Z,46.42
2022-12-01T07:16:46.688Z,46.42
2022-12-01T07:17:46.613Z,46.42
2022-12-01T07:18:46.625Z,46.42
2022-12-01T07:19:46.788Z,46.51
2022-12-01T07:20:46.645Z,46.54
2022-12-01T07:21:46.658Z,46.44
2022-12-01T07:22:46.687Z,46.54
2022-12-01T07:23:46.688Z,46.54
2022-12-01T07:24:46.736Z,46.44
2022-12-01T07:25:46.752Z,46.54
2022-12-01T07:26:46.770Z,46.54
2022-12-01T07:27:46.790Z,46.54
2022-12-01T07:28:46.861Z,46.54
2022-12-01T07:29:47.115Z,46.44
2022-12-01T07:30:46.850Z,46.54
2022-12-01T07:31:46.804Z,46.54
2022-12-01T07:32:46.834Z,46.54
2022-12-01T07:33:46.884Z,46.54
2022-12-01T07:34:46.854Z,46.54
2022-12-01T07:35:46.886Z,46.54
2022-12-01T07:36:46.906Z,46.54
2022-12-01T07:37:46.937Z,46.54
2022-12-01T07:38:46.958Z,46.54
2022-12-01T07:39:47.183Z,46.44
2022-12-01T07:40:46.983Z,46.54
2022-12-01T07:41:46.952Z,46.54
2022-12-01T07:42:46.959Z,46.54
2022-12-01T07:43:46.977Z,46.54
2022-12-01T07:44:47.015Z,46.54
2022-12-01T07:45:47.095Z,46.54
2022-12-01T07:46:47.082Z,46.54
2022-12-01T07:47:47.063Z,46.54
2022-12-01T07:48:47.027Z,46.54
2022-12-01T07:49:47.279Z,46.54
2022-12-01T07:50:47.079Z,46.54
2022-12-01T07:51:47.135Z,46.54
2022-12-01T07:52:47.068Z,46.54
2022-12-01T07:53:47.094Z,46.54
2022-12-01T07:54:47.108Z,46.54
2022-12-01T07:55:47.121Z,46.54
2022-12-01T07:56:47.168Z,46.54
2022-12-01T07:57:47.131Z,46.54
2022-12-01T07:58:47.154Z,46.54
2022-12-01T07:59:47.553Z,46.54
2022-12-01T08:00:47.159Z,46.54
2022-12-01T08:01:47.225Z,46.54
2022-12-01T08:02:47.323Z,46.54
2022-12-01T08:03:47.216Z,46.44
2022-12-01T08:04:47.244Z,46.54
2022-12-01T08:05:47.260Z,46.54
2022-12-01T08:06:47.256Z,46.56
2022-12-01T08:07:47.273Z,46.56
2022-12-01T08:08:47.250Z,46.56
2022-12-01T08:09:47.660Z,46.56
2022-12-01T08:10:47.316Z,46.56
2022-12-01T08:11:47.385Z,46.56
2022-12-01T08:12:47.356Z,46.56
2022-12-01T08:13:47.324Z,46.66
2022-12-01T08:14:47.365Z,46.66
2022-12-01T08:15:47.433Z,46.66
2022-12-01T08:16:47.435Z,46.66
2022-12-01T08:17:47.408Z,46.66
2022-12-01T08:18:47.428Z,46.64
2022-12-01T08:19:47.877Z,46.64
2022-12-01T08:20:47.471Z,46.54
2022-12-01T08:21:47.510Z,46.54
2022-12-01T08:22:47.484Z,46.44
2022-12-01T08:23:47.503Z,46.31
2022-12-01T08:24:47.536Z,46.22
2022-12-01T08:25:47.588Z,46.12
2022-12-01T08:26:47.564Z,46.12
2022-12-01T08:27:47.577Z,46.12
2022-12-01T08:28:47.843Z,45.89
2022-12-01T08:29:47.927Z,45.69
2022-12-01T08:30:47.804Z,45.79
2022-12-01T08:31:47.893Z,45.69
2022-12-01T08:32:47.673Z,45.69
2022-12-01T08:33:47.775Z,45.59
2022-12-01T08:34:53.099Z,45.69
2022-12-01T08:35:47.689Z,45.50
2022-12-01T08:36:47.711Z,45.47
2022-12-01T08:37:47.731Z,45.47
2022-12-01T08:38:47.751Z,45.47
2022-12-01T08:39:47.959Z,45.57
2022-12-01T08:40:47.753Z,45.47
2022-12-01T08:41:47.793Z,45.47
2022-12-01T08:42:47.817Z,45.47
2022-12-01T08:44:03.252Z,45.37
2022-12-01T08:44:47.991Z,45.37
2022-12-01T08:45:47.858Z,45.37
2022-12-01T08:46:47.968Z,45.27
2022-12-01T08:47:47.901Z,44.17
2022-12-01T08:48:47.936Z,43.48
2022-12-01T08:49:48.436Z,42.90
2022-12-01T08:50:47.968Z,42.49
2022-12-01T08:51:47.935Z,42.52
2022-12-01T08:52:47.951Z,42.52
2022-12-01T08:53:47.981Z,42.24
2022-12-01T08:54:47.959Z,42.03
2022-12-01T08:55:47.996Z,41.74
2022-12-01T08:56:48.028Z,41.96
2022-12-01T08:57:48.062Z,41.75
2022-12-01T08:58:48.040Z,41.85
2022-12-01T08:59:48.172Z,41.35
2022-12-01T09:00:48.100Z,40.95
2022-12-01T09:01:48.119Z,40.85
2022-12-01T09:02:48.154Z,40.77
2022-12-01T09:03:48.076Z,40.57
2022-12-01T09:04:48.115Z,40.47
2022-12-01T09:05:48.191Z,40.37
2022-12-01T09:06:48.157Z,40.07
2022-12-01T09:07:48.300Z,39.97
2022-12-01T09:08:48.178Z,39.99
2022-12-01T09:09:48.390Z,39.89
2022-12-01T09:10:48.191Z,39.69
2022-12-01T09:11:48.214Z,39.79
2022-12-01T09:12:48.239Z,40.47
2022-12-01T09:13:54.311Z,39.57
2022-12-01T09:14:48.442Z,38.97
2022-12-01T09:15:48.323Z,39.07
2022-12-01T09:16:48.345Z,38.97
2022-12-01T09:17:48.267Z,38.77
2022-12-01T09:18:48.299Z,38.57
2022-12-01T09:19:48.673Z,38.67
2022-12-01T09:20:48.322Z,38.57
2022-12-01T09:21:48.340Z,38.47
2022-12-01T09:22:48.343Z,38.37
2022-12-01T09:23:48.352Z,38.27
2022-12-01T09:24:48.391Z,38.07
2022-12-01T09:25:48.370Z,37.87
2022-12-01T09:26:48.489Z,37.79
2022-12-01T09:27:48.396Z,38.09
2022-12-01T09:28:48.491Z,38.17
2022-12-01T09:29:48.658Z,37.87
2022-12-01T09:30:48.537Z,37.87
2022-12-01T09:31:48.593Z,37.87
2022-12-01T09:32:48.576Z,37.66
2022-12-01T09:33:48.547Z,37.66
2022-12-01T09:34:48.539Z,37.46
2022-12-01T09:35:48.561Z,37.37
2022-12-01T09:36:48.572Z,37.27
2022-12-01T09:37:48.545Z,37.38
2022-12-01T09:38:48.568Z,37.38
2022-12-01T09:39:48.851Z,37.48
2022-12-01T09:40:48.593Z,37.48
2022-12-01T09:41:48.585Z,37.48
2022-12-01T09:42:48.616Z,37.38
2022-12-01T09:43:48.607Z,37.28
2022-12-01T09:44:48.601Z,37.38
2022-12-01T09:45:48.621Z,37.48
2022-12-01T09:46:48.659Z,37.38
2022-12-01T09:47:48.655Z,37.38
2022-12-01T09:48:48.690Z,37.18
2022-12-01T09:49:49.097Z,37.28
2022-12-01T09:50:48.675Z,37.18
2022-12-01T09:51:48.673Z,37.18
2022-12-01T09:52:48.667Z,37.18
2022-12-01T09:53:48.678Z,37.18
2022-12-01T09:54:48.664Z,37.18
2022-12-01T09:55:48.651Z,37.08
2022-12-01T09:56:48.646Z,37.08
2022-12-01T09:57:48.667Z,36.88
2022-12-01T09:58:48.633Z,37.00
2022-12-01T09:59:48.966Z,37.22
2022-12-01T10:00:48.700Z,37.12
2022-12-01T10:01:48.768Z,37.22
2022-12-01T10:02:48.666Z,37.22
2022-12-01T10:03:48.843Z,37.22
2022-12-01T10:04:48.889Z,37.22
2022-12-01T10:06:18.539Z,37.02
2022-12-01T10:06:48.693Z,37.22
2022-12-01T10:07:48.824Z,37.02
2022-12-01T10:08:48.755Z,37.10
2022-12-01T10:09:49.070Z,36.80
2022-12-01T10:10:48.730Z,36.70
2022-12-01T10:11:48.717Z,36.58
2022-12-01T10:12:49.258Z,36.58
2022-12-01T10:13:48.782Z,36.38
2022-12-01T10:14:48.814Z,36.48
2022-12-01T10:15:48.785Z,36.46
2022-12-01T10:16:48.838Z,36.36
2022-12-01T10:17:48.845Z,36.16
2022-12-01T10:18:49.032Z,36.07
2022-12-01T10:19:49.239Z,36.07
2022-12-01T10:20:49.005Z,36.07
2022-12-01T10:21:48.892Z,36.05
2022-12-01T10:22:48.905Z,35.94
2022-12-01T10:23:48.930Z,35.94
2022-12-01T10:24:48.964Z,35.75
2022-12-01T10:25:49.000Z,35.73
2022-12-01T10:26:48.965Z,35.73
2022-12-01T10:27:48.980Z,35.63
2022-12-01T10:28:49.011Z,35.43
2022-12-01T10:29:49.575Z,35.53
2022-12-01T10:30:49.050Z,35.63
2022-12-01T10:31:49.120Z,35.73
2022-12-01T10:32:49.026Z,35.43
2022-12-01T10:33:49.042Z,35.43
2022-12-01T10:34:49.016Z,35.33
2022-12-01T10:35:49.080Z,35.53
2022-12-01T10:36:49.103Z,35.53
2022-12-01T10:37:49.238Z,35.43
2022-12-01T10:38:49.074Z,35.53
2022-12-01T10:39:49.621Z,35.53
2022-12-01T10:40:49.099Z,35.43
2022-12-01T10:41:49.120Z,35.44
2022-12-01T10:42:49.129Z,35.55
2022-12-01T10:43:49.143Z,35.75
2022-12-01T10:44:49.178Z,35.64
2022-12-01T10:45:49.217Z,35.55
2022-12-01T10:46:49.293Z,35.75
2022-12-01T10:47:49.230Z,35.75
2022-12-01T10:48:49.247Z,35.76
2022-12-01T10:49:49.619Z,35.76
2022-12-01T10:50:49.267Z,35.76
2022-12-01T10:51:49.280Z,35.86
2022-12-01T10:52:49.298Z,36.07
2022-12-01T10:53:49.297Z,36.07
2022-12-01T10:54:49.324Z,35.85
2022-12-01T10:55:49.336Z,35.75
2022-12-01T10:56:49.374Z,35.75
2022-12-01T10:57:49.357Z,35.75
2022-12-01T10:58:49.396Z,35.85
2022-12-01T10:59:49.802Z,35.75
2022-12-01T11:00:59.731Z,35.76
2022-12-01T11:01:49.750Z,35.86
2022-12-01T11:02:49.611Z,35.86
2022-12-01T11:03:49.454Z,35.96
2022-12-01T11:04:49.451Z,36.07
2022-12-01T11:05:49.471Z,36.08
2022-12-01T11:06:49.510Z,36.08
2022-12-01T11:07:49.505Z,36.18
2022-12-01T11:08:49.538Z,36.28
2022-12-01T11:09:49.813Z,36.16
2022-12-01T11:10:49.534Z,36.07
2022-12-01T11:11:49.558Z,36.07
2022-12-01T11:12:49.570Z,35.96
2022-12-01T11:13:49.560Z,35.96
2022-12-01T11:14:49.529Z,35.96
2022-12-01T11:15:49.543Z,35.94
2022-12-01T11:16:49.634Z,35.75
2022-12-01T11:17:49.563Z,35.64
2022-12-01T11:18:49.631Z,35.75
2022-12-01T11:19:50.011Z,35.75
2022-12-01T11:20:49.591Z,35.75
2022-12-01T11:21:49.581Z,35.64
2022-12-01T11:22:49.674Z,35.64
2022-12-01T11:23:49.611Z,35.64
2022-12-01T11:24:49.616Z,35.63
2022-12-01T11:25:49.589Z,35.63
2022-12-01T11:26:49.805Z,35.53
2022-12-01T11:27:49.755Z,35.53
2022-12-01T11:28:49.656Z,35.53
2022-12-01T11:29:50.004Z,35.55
2022-12-01T11:30:55.262Z,35.64
2022-12-01T11:31:49.772Z,35.64
2022-12-01T11:32:49.673Z,35.64
2022-12-01T11:33:49.743Z,35.64
2022-12-01T11:34:50.127Z,35.64
2022-12-01T11:35:49.698Z,35.64
2022-12-01T11:36:49.718Z,35.64
2022-12-01T11:38:13.271Z,35.64
2022-12-01T11:38:49.727Z,35.64
2022-12-01T11:39:49.978Z,35.64
2022-12-01T11:40:49.764Z,35.75
2022-12-01T11:41:49.735Z,35.85
2022-12-01T11:42:49.787Z,35.94
2022-12-01T11:44:00.715Z,35.94
2022-12-01T11:44:51.689Z,35.94
2022-12-01T11:45:50.046Z,35.85
2022-12-01T11:46:55.757Z,35.75
2022-12-01T11:47:49.826Z,35.64
2022-12-01T11:48:49.837Z,35.64
2022-12-01T11:49:50.224Z,35.75
2022-12-01T11:50:49.873Z,35.64
2022-12-01T11:51:49.862Z,35.63
2022-12-01T11:52:49.921Z,35.53
2022-12-01T11:53:49.901Z,35.43
2022-12-01T11:54:49.927Z,35.43
2022-12-01T11:55:49.913Z,35.41
2022-12-01T11:57:17.368Z,35.21
2022-12-01T11:57:49.981Z,35.11
2022-12-01T11:58:50.256Z,35.10
2022-12-01T11:59:50.367Z,34.99
2022-12-01T12:00:49.990Z,34.80
2022-12-01T12:01:50.027Z,34.89
2022-12-01T12:02:50.090Z,34.89
2022-12-01T12:03:50.035Z,34.89
2022-12-01T12:04:50.022Z,34.78
2022-12-01T12:05:50.035Z,34.78
2022-12-01T12:06:50.063Z,34.78
2022-12-01T12:07:50.175Z,34.78
2022-12-01T12:08:50.149Z,34.78
2022-12-01T12:09:50.362Z,34.88
2022-12-01T12:10:50.213Z,34.88
2022-12-01T12:11:50.130Z,34.68
2022-12-01T12:12:50.181Z,34.78
2022-12-01T12:13:50.146Z,34.80
2022-12-01T12:14:50.158Z,34.99
2022-12-01T12:15:50.210Z,34.99
2022-12-01T12:16:50.202Z,34.99
2022-12-01T12:17:50.547Z,34.98
2022-12-01T12:18:50.327Z,34.78
2022-12-01T12:20:10.746Z,34.78
2022-12-01T12:20:50.288Z,34.88
2022-12-01T12:21:50.274Z,34.78
2022-12-01T12:22:55.263Z,34.89
2022-12-01T12:23:50.300Z,34.89
2022-12-01T12:24:50.346Z,34.99
2022-12-01T12:25:50.378Z,35.10
2022-12-01T12:26:50.383Z,35.10
2022-12-01T12:27:50.421Z,34.99
2022-12-01T12:28:50.615Z,35.10
2022-12-01T12:29:50.731Z,35.11
2022-12-01T12:30:50.643Z,35.21
2022-12-01T12:31:50.597Z,35.21
2022-12-01T12:32:50.465Z,35.21
2022-12-01T12:33:50.496Z,35.31
2022-12-01T12:34:50.538Z,35.41
2022-12-01T12:35:50.566Z,35.41
2022-12-01T12:36:50.595Z,35.41
2022-12-01T12:37:51.005Z,35.31
2022-12-01T12:38:50.574Z,35.53
2022-12-01T12:39:50.889Z,35.53
2022-12-01T12:40:50.622Z,35.53
2022-12-01T12:41:50.604Z,35.53
2022-12-01T12:42:50.628Z,35.61
2022-12-01T12:43:50.642Z,35.51
2022-12-01T12:44:50.646Z,35.51
2022-12-01T12:45:50.671Z,35.41
2022-12-01T12:46:50.649Z,35.31
2022-12-01T12:47:50.711Z,35.31
2022-12-01T12:49:12.044Z,35.41
2022-12-01T12:49:51.020Z,35.51
2022-12-01T12:50:50.696Z,35.51
2022-12-01T12:51:50.803Z,35.51
2022-12-01T12:52:50.699Z,35.51
2022-12-01T12:53:50.804Z,35.63